Time;durP1;ratioP1;P1;durP2;ratioP2;P2;SDS_P1;SDS_P2;PMS_P1;PMS_P2;Temp;Humidity;BMP_temperature;BMP_pressure;BME280_temperature;BME280_humidity;BME280_pressure;Samples;Min_cycle;Max_cycle;Signal;HPM_P1;HPM_P2
2023/01/26 00:01:12;;;;;;;42.50;20.58;;;;;;;4.29;65.19;100553.78;7696127;32;39134;-83
2023/01/26 00:05:28;;;;;;;42.40;21.25;;;;;;;4.32;65.21;100553.38;7712771;32;39851;-83
2023/01/26 00:09:45;;;;;;;53.50;21.12;;;;;;;4.49;64.76;100545.63;7712341;32;38745;-83
2023/01/26 00:14:01;;;;;;;44.28;21.23;;;;;;;4.51;64.61;100541.66;7712385;32;37904;-84
2023/01/26 00:18:17;;;;;;;45.08;20.80;;;;;;;4.66;64.10;100532.47;7712547;32;39324;-83
2023/01/26 00:22:33;;;;;;;45.25;19.90;;;;;;;4.38;64.72;100528.22;7712358;32;40103;-83
2023/01/26 00:26:49;;;;;;;44.05;21.10;;;;;;;4.47;64.50;100539.63;7712268;32;38812;-83
2023/01/26 00:31:14;;;;;;;48.80;20.92;;;;;;;4.48;64.50;100528.63;7709336;32;37061;-83
2023/01/26 00:35:30;;;;;;;38.97;20.17;;;;;;;4.31;65.01;100530.94;7698939;32;39779;-83
2023/01/26 00:39:46;;;;;;;43.17;19.95;;;;;;;4.55;64.24;100525.03;7711857;32;40628;-83
2023/01/26 00:44:02;;;;;;;40.97;20.12;;;;;;;4.26;65.17;100528.06;7712185;32;38859;-80
2023/01/26 00:48:19;;;;;;;41.35;19.55;;;;;;;4.30;65.12;100523.06;7712121;32;37186;-83
2023/01/26 00:52:37;;;;;;;51.80;20.98;;;;;;;4.44;64.41;100521.97;7712188;32;39379;-83
2023/01/26 00:56:54;;;;;;;41.47;20.90;;;;;;;4.33;64.76;100511.84;7712376;32;38372;-84
2023/01/26 01:01:10;;;;;;;44.28;20.25;;;;;;;4.42;64.54;100505.16;7705774;32;38043;-83
2023/01/26 01:05:28;;;;;;;48.87;21.05;;;;;;;4.29;64.61;100511.44;7685217;32;37292;-83
2023/01/26 01:09:45;;;;;;;49.80;21.80;;;;;;;4.39;64.45;100515.56;7684752;32;39330;-86
2023/01/26 01:14:02;;;;;;;42.65;20.62;;;;;;;4.39;64.29;100508.28;7685128;32;39731;-85
2023/01/26 01:18:18;;;;;;;42.20;19.85;;;;;;;4.39;64.64;100505.56;7685130;32;38930;-83
2023/01/26 01:22:35;;;;;;;44.90;21.20;;;;;;;4.55;64.33;100503.44;7686716;32;37946;-83
2023/01/26 01:26:52;;;;;;;39.03;18.60;;;;;;;4.48;64.53;100501.63;7688747;32;40075;-84
2023/01/26 01:31:10;;;;;;;40.88;20.75;;;;;;;4.55;64.24;100496.16;7685148;32;40204;-82
2023/01/26 01:35:27;;;;;;;42.42;20.65;;;;;;;4.65;63.79;100493.81;7671654;32;37305;-84
2023/01/26 01:39:43;;;;;;;44.25;20.83;;;;;;;4.61;63.95;100498.00;7693950;32;37217;-85
2023/01/26 01:44:14;;;;;;;46.65;21.62;;;;;;;4.56;64.15;100488.91;7711578;32;40390;-84
2023/01/26 01:48:40;;;;;;;47.00;21.50;;;;;;;4.51;64.31;100482.25;7711575;32;40078;-84
2023/01/26 01:52:56;;;;;;;43.15;21.33;;;;;;;4.27;64.99;100475.72;7709202;32;37962;-83
2023/01/26 01:57:17;;;;;;;42.58;20.65;;;;;;;4.38;64.80;100468.84;7697730;32;37950;-83
2023/01/26 02:01:33;;;;;;;45.75;21.87;;;;;;;4.28;65.00;100465.75;7698234;32;39443;-84
2023/01/26 02:06:01;;;;;;;45.12;20.92;;;;;;;4.52;64.39;100458.81;7711392;32;40787;-83
2023/01/26 02:10:19;;;;;;;55.30;21.45;;;;;;;4.49;64.77;100456.53;7710710;32;38844;-83
2023/01/26 02:14:35;;;;;;;51.35;22.55;;;;;;;4.36;65.10;100448.47;7697483;32;38211;-84
2023/01/26 02:18:52;;;;;;;52.03;23.30;;;;;;;4.49;64.92;100443.03;7711165;32;40043;-83
2023/01/26 02:23:08;;;;;;;46.92;22.35;;;;;;;4.39;65.22;100443.47;7700739;32;40056;-83
2023/01/26 02:27:25;;;;;;;51.70;22.90;;;;;;;4.27;65.62;100431.69;7684511;32;38715;-83
2023/01/26 02:31:42;;;;;;;54.10;23.17;;;;;;;4.26;65.69;100430.88;7684166;32;37295;-85
2023/01/26 02:36:01;;;;;;;58.20;23.95;;;;;;;4.43;65.20;100425.81;7670866;32;39607;-82
2023/01/26 02:40:36;;;;;;;52.20;22.23;;;;;;;4.35;65.57;100422.53;7671503;32;39945;-84
2023/01/26 02:44:53;;;;;;;60.10;24.67;;;;;;;4.61;64.82;100414.28;7684045;32;38470;-85
2023/01/26 02:53:44;;;;;;;50.63;23.73;;;;;;;4.44;64.84;100397.75;7702532;32;38964;-83
2023/01/26 02:58:03;;;;;;;54.50;22.50;;;;;;;4.40;64.98;100393.84;7710499;32;40670;-83
2023/01/26 03:02:19;;;;;;;44.38;21.02;;;;;;;4.58;64.37;100392.28;7710140;32;38621;-84
2023/01/26 03:06:36;;;;;;;46.50;21.98;;;;;;;4.30;65.05;100385.38;7710054;32;37218;-83
2023/01/26 03:10:52;;;;;;;42.50;20.10;;;;;;;4.18;65.29;100389.81;7922310;27;39231;-84
2023/01/26 03:29:07;;;;;;;47.62;20.25;;;;;;;4.26;64.39;100367.94;7665544;32;39702;-83
2023/01/26 03:33:23;;;;;;;47.38;19.10;;;;;;;4.32;64.24;100373.31;7682885;32;40860;-83
2023/01/26 03:37:42;;;;;;;35.67;19.17;;;;;;;4.26;64.44;100360.72;7682878;32;37945;-85
2023/01/26 04:00:18;;;;;;;34.05;17.17;;;;;;;4.25;64.39;100342.03;7656566;32;38101;-83
2023/01/26 04:09:10;;;;;;;30.67;15.85;;;;;;;4.26;64.35;100341.81;7656231;32;40120;-86
2023/01/26 04:22:43;;;;;;;33.75;16.65;;;;;;;4.21;64.54;100324.59;7670187;32;39159;-78
2023/01/26 04:27:00;;;;;;;33.13;16.55;;;;;;;4.17;64.37;100328.78;7672427;32;40283;-80
2023/01/26 04:31:16;;;;;;;33.17;15.77;;;;;;;4.22;64.27;100327.06;7670953;32;38318;-84
2023/01/26 04:35:33;;;;;;;31.60;16.02;;;;;;;4.22;64.05;100318.16;7664140;32;37275;-83
2023/01/26 04:39:49;;;;;;;26.95;15.13;;;;;;;4.43;63.21;100320.53;7667271;32;39465;-83
2023/01/26 04:44:07;;;;;;;32.85;16.08;;;;;;;4.29;63.60;100311.69;7687145;32;40825;-86
2023/01/26 04:48:23;;;;;;;29.37;15.85;;;;;;;4.13;64.28;100312.19;7685440;32;38055;-84
2023/01/26 04:52:39;;;;;;;26.62;15.05;;;;;;;4.06;64.48;100306.81;7682122;32;37217;-85
2023/01/26 04:56:56;;;;;;;27.52;15.20;;;;;;;4.01;64.57;100308.53;7685320;32;39252;-85
2023/01/26 05:01:12;;;;;;;28.87;15.10;;;;;;;4.28;63.76;100304.63;7685353;32;40912;-84
2023/01/26 05:05:28;;;;;;;31.02;15.32;;;;;;;4.18;64.15;100298.88;7664801;32;38857;-84
2023/01/26 05:09:45;;;;;;;29.20;15.60;;;;;;;4.08;64.22;100304.72;7658986;32;36893;-84
2023/01/26 05:14:01;;;;;;;25.25;14.40;;;;;;;4.13;64.16;100302.22;7658583;32;39915;-84
2023/01/26 05:18:17;;;;;;;28.75;15.20;;;;;;;3.99;64.48;100302.53;7658618;32;40821;-84
2023/01/26 05:22:33;;;;;;;36.58;15.77;;;;;;;4.05;64.01;100309.75;7658591;32;38717;-83
2023/01/26 05:27:19;;;;;;;30.20;15.20;;;;;;;4.06;64.15;100306.81;7657410;32;38032;-86
2023/01/26 05:31:26;;;;;;;25.98;14.15;;;;;;;4.01;64.29;100306.66;7658588;32;39422;-85
2023/01/26 05:35:43;;;;;;;28.40;14.87;;;;;;;4.12;63.82;100310.53;7678815;32;40888;-84
2023/01/26 05:39:59;;;;;;;28.02;15.05;;;;;;;3.99;64.17;100306.03;7684929;32;38518;-83
2023/01/26 05:44:15;;;;;;;29.27;15.68;;;;;;;4.07;63.98;100300.41;7658644;32;37306;-84
2023/01/26 05:48:31;;;;;;;30.95;15.75;;;;;;;4.21;63.56;100305.69;7658567;32;39294;-85
2023/01/26 05:52:48;;;;;;;26.85;15.55;;;;;;;4.27;63.05;100304.84;7658375;32;40019;-84
2023/01/26 05:57:04;;;;;;;26.60;14.07;;;;;;;4.00;63.91;100310.41;7658129;32;37769;-84
2023/01/26 06:01:21;;;;;;;25.45;14.20;;;;;;;4.31;62.71;100306.03;7658854;32;36959;-84
2023/01/26 06:05:37;;;;;;;29.20;14.43;;;;;;;4.32;62.45;100311.22;7657994;32;39423;-84
2023/01/26 06:09:54;;;;;;;26.35;14.10;;;;;;;4.18;62.86;100311.56;7657797;32;40920;-84
2023/01/26 06:14:11;;;;;;;26.40;13.07;;;;;;;4.06;63.19;100306.81;7683060;32;38071;-84
2023/01/26 06:18:28;;;;;;;26.62;13.60;;;;;;;4.19;62.90;100310.50;7684430;32;38004;-85
2023/01/26 06:22:44;;;;;;;23.95;13.18;;;;;;;4.03;63.30;100311.84;7684493;32;39369;-83
2023/01/26 06:27:01;;;;;;;26.60;13.80;;;;;;;4.16;62.66;100310.91;7672113;32;40908;-84
2023/01/26 06:31:18;;;;;;;27.27;12.85;;;;;;;4.16;62.63;100314.47;7657926;32;38836;-84
2023/01/26 06:35:35;;;;;;;26.30;13.88;;;;;;;4.10;62.80;100308.03;7644441;32;37285;-83
2023/01/26 06:39:51;;;;;;;24.87;13.70;;;;;;;4.07;62.95;100310.34;7656744;32;39090;-84
2023/01/26 06:44:08;;;;;;;23.02;12.48;;;;;;;4.08;62.99;100299.34;7666564;32;40113;-85
2023/01/26 06:48:30;;;;;;;24.30;12.60;;;;;;;4.14;62.75;100303.06;7683971;32;38891;-86
2023/01/26 06:52:50;;;;;;;22.27;12.20;;;;;;;4.04;62.59;100300.00;7683753;32;38042;-86
2023/01/26 06:57:08;;;;;;;22.73;12.57;;;;;;;4.14;62.23;100295.78;7683715;32;40312;-85
2023/01/26 07:01:25;;;;;;;22.80;13.05;;;;;;;4.02;62.75;100294.81;7670211;32;39993;-85
2023/01/26 07:05:41;;;;;;;22.37;12.43;;;;;;;4.12;62.30;100300.56;7684152;32;38112;-84
2023/01/26 07:09:57;;;;;;;23.75;12.32;;;;;;;4.23;62.14;100296.34;7683681;32;37245;-85
2023/01/26 07:14:14;;;;;;;24.60;11.88;;;;;;;4.12;62.30;100297.87;7674373;32;39358;-85
2023/01/26 07:18:31;;;;;;;22.75;11.93;;;;;;;4.33;65.51;100293.19;7656983;32;40792;-82
2023/01/26 07:22:48;;;;;;;22.40;13.18;;;;;;;4.59;63.07;100286.75;7657020;32;37700;-83
2023/01/26 07:27:06;;;;;;;20.45;11.90;;;;;;;4.41;61.79;100287.50;7656988;32;37247;-83
2023/01/26 07:31:22;;;;;;;21.90;11.10;;;;;;;4.30;61.63;100290.91;7657135;32;39381;-85
2023/01/26 07:35:39;;;;;;;22.62;11.65;;;;;;;4.38;61.42;100281.72;7666399;32;38219;-84
2023/01/26 07:39:55;;;;;;;24.17;12.10;;;;;;;4.19;62.00;100280.81;7643362;32;38525;-83
2023/01/26 07:44:11;;;;;;;22.58;12.27;;;;;;;4.27;61.83;100286.75;7675701;32;38037;-83
2023/01/26 07:48:30;;;;;;;21.92;11.48;;;;;;;4.24;62.06;100280.97;7683020;32;38351;-84
2023/01/26 07:52:47;;;;;;;21.83;11.23;;;;;;;4.14;62.56;100282.28;7681933;32;40801;-85
2023/01/26 07:57:07;;;;;;;21.50;12.20;;;;;;;3.97;63.10;100281.16;7666901;32;38815;-85
2023/01/26 08:01:23;;;;;;;20.55;11.15;;;;;;;4.14;62.49;100282.28;7674578;32;36970;-84
2023/01/26 08:05:39;;;;;;;19.75;10.80;;;;;;;4.20;62.37;100275.19;7684852;32;38881;-86
2023/01/26 08:09:57;;;;;;;24.58;11.88;;;;;;;4.20;62.59;100271.69;7684806;32;41023;-85
2023/01/26 08:14:14;;;;;;;22.17;11.38;;;;;;;4.37;61.73;100264.69;7660146;32;38006;-85
2023/01/26 08:18:30;;;;;;;23.12;11.57;;;;;;;4.32;61.80;100275.31;7645111;32;37229;-87
2023/01/26 08:22:46;;;;;;;21.30;10.20;;;;;;;4.31;61.94;100271.81;7663499;32;40035;-84
2023/01/26 08:27:03;;;;;;;20.33;10.88;;;;;;;4.39;61.84;100267.19;7679802;32;40500;-85
2023/01/26 08:31:20;;;;;;;21.40;10.93;;;;;;;4.23;62.23;100277.47;7683774;32;37793;-86
2023/01/26 08:35:36;;;;;;;20.90;11.00;;;;;;;4.35;62.41;100277.59;7662135;32;38215;-84
2023/01/26 08:39:53;;;;;;;18.10;10.38;;;;;;;4.51;61.95;100277.03;7685003;32;39051;-84
2023/01/26 08:44:10;;;;;;;18.52;10.80;;;;;;;4.26;62.48;100270.78;7660147;32;40839;-84
2023/01/26 08:48:27;;;;;;;18.95;10.30;;;;;;;4.51;61.94;100260.03;7661912;32;38106;-84
2023/01/26 08:52:43;;;;;;;18.48;11.18;;;;;;;4.37;62.03;100263.87;7682616;32;37478;-84
2023/01/26 08:57:00;;;;;;;24.48;11.90;;;;;;;4.37;61.86;100263.87;7671783;32;39355;-86
2023/01/26 09:01:16;;;;;;;19.05;10.82;;;;;;;4.47;61.86;100278.53;7684593;32;40947;-84
2023/01/26 09:05:38;;;;;;;19.00;10.38;;;;;;;4.28;62.13;100280.34;7670512;32;38561;-84
2023/01/26 09:09:54;;;;;;;20.90;11.90;;;;;;;4.45;61.50;100282.47;7658415;32;37222;-84
2023/01/26 09:14:10;;;;;;;16.58;9.95;;;;;;;4.44;61.64;100281.66;7670593;32;37395;-84
2023/01/26 09:18:27;;;;;;;21.33;11.00;;;;;;;4.79;60.11;100273.06;7668407;32;39596;-84
2023/01/26 09:22:44;;;;;;;20.20;10.80;;;;;;;4.62;60.93;100277.37;7649037;32;38817;-85
2023/01/26 09:27:02;;;;;;;18.52;10.20;;;;;;;4.76;59.89;100273.53;7684579;32;37720;-84
2023/01/26 09:31:18;;;;;;;19.95;10.07;;;;;;;4.73;59.75;100267.75;7663633;32;40068;-85
2023/01/26 09:35:37;;;;;;;20.58;10.13;;;;;;;4.77;59.24;100274.34;7658028;32;39001;-83
2023/01/26 09:39:53;;;;;;;17.95;10.43;;;;;;;4.75;60.01;100266.47;7658342;32;37757;-85
2023/01/26 09:44:17;;;;;;;17.77;9.65;;;;;;;4.89;59.79;100262.56;7645172;32;37220;-86
2023/01/26 09:49:05;;;;;;;19.27;9.82;;;;;;;4.97;59.75;100263.34;7645274;32;40132;-84
2023/01/26 09:53:32;;;;;;;21.35;10.38;;;;;;;5.16;59.08;100250.69;7658139;32;39978;-85
2023/01/26 09:58:11;;;;;;;18.67;10.05;;;;;;;5.12;58.61;100249.47;7657761;32;37915;-83
2023/01/26 10:02:54;;;;;;;20.62;10.40;;;;;;;5.25;57.92;100244.75;7645938;32;37188;-85
2023/01/26 10:07:13;;;;;;;17.83;9.80;;;;;;;5.30;57.22;100235.97;7657871;32;40553;-83
2023/01/26 10:11:42;;;;;;;20.92;10.63;;;;;;;5.43;56.58;100224.16;7671472;32;40845;-85
2023/01/26 10:16:03;;;;;;;18.23;9.95;;;;;;;5.48;56.19;100223.47;7679686;32;38720;-84
2023/01/26 10:20:44;;;;;;;18.33;9.38;;;;;;;5.44;55.54;100221.22;7658135;32;37894;-83
2023/01/26 10:25:01;;;;;;;18.45;10.00;;;;;;;5.42;55.40;100217.09;7658192;32;39116;-84
2023/01/26 10:29:20;;;;;;;17.48;9.13;;;;;;;5.44;55.45;100206.87;7646173;32;39526;-81
2023/01/26 10:33:37;;;;;;;17.67;8.95;;;;;;;5.43;55.06;100210.63;7659142;32;37748;-84
2023/01/26 10:37:53;;;;;;;19.55;9.55;;;;;;;5.71;54.50;100199.25;7665337;32;37148;-84
2023/01/26 10:42:16;;;;;;;15.88;9.43;;;;;;;5.62;55.30;100195.19;7657217;32;39268;-82
2023/01/26 10:46:39;;;;;;;19.67;10.55;;;;;;;5.51;54.73;100193.28;7644777;32;39705;-83
2023/01/26 10:51:12;;;;;;;20.58;10.40;;;;;;;5.54;55.35;100196.34;7665862;32;37988;-83
2023/01/26 10:55:32;;;;;;;19.02;10.25;;;;;;;5.55;52.80;100180.94;7634980;32;37001;-82
2023/01/26 10:59:58;;;;;;;17.12;9.15;;;;;;;5.54;52.93;100179.31;7644702;32;40095;-83
2023/01/26 11:04:14;;;;;;;18.52;9.93;;;;;;;5.48;52.29;100164.78;7666803;32;39948;-83
2023/01/26 11:08:33;;;;;;;18.08;10.55;;;;;;;5.81;51.16;100168.91;7669499;32;36583;-83
2023/01/26 11:13:04;;;;;;;18.77;9.50;;;;;;;6.00;50.95;100158.84;7681825;32;37197;-84
2023/01/26 11:17:25;;;;;;;17.50;8.88;;;;;;;5.64;49.89;100156.03;7645601;32;39523;-84
2023/01/26 11:21:52;;;;;;;19.87;9.40;;;;;;;5.88;49.59;100153.41;7656753;32;40626;-83
2023/01/26 11:26:30;;;;;;;21.80;10.13;;;;;;;5.79;50.63;100146.66;7648879;32;37723;-82
2023/01/26 11:31:01;;;;;;;15.15;8.68;;;;;;;6.02;49.63;100129.72;7672837;32;37435;-84
2023/01/26 11:35:51;;;;;;;15.95;8.50;;;;;;;6.20;49.17;100126.88;7667469;32;39400;-86
2023/01/26 11:40:27;;;;;;;16.42;8.98;;;;;;;5.94;49.15;100133.53;7653588;32;39464;-83
2023/01/26 11:45:04;;;;;;;15.07;8.68;;;;;;;5.82;47.98;100127.28;7660154;32;37898;-85
2023/01/26 11:49:24;;;;;;;16.10;8.30;;;;;;;5.89;47.35;100111.75;7660305;32;37806;-83
2023/01/26 11:54:03;;;;;;;17.42;8.65;;;;;;;5.94;48.46;100105.66;7658461;32;40876;-85
2023/01/26 11:58:34;;;;;;;20.33;9.13;;;;;;;5.72;47.88;100089.13;7656542;32;39728;-84
2023/01/26 12:03:11;;;;;;;18.17;8.52;;;;;;;5.62;45.83;100092.41;7656487;32;37781;-83
2023/01/26 12:07:53;;;;;;;14.05;8.70;;;;;;;5.53;46.01;100083.81;7657993;32;37734;-84
2023/01/26 12:12:25;;;;;;;18.37;9.27;;;;;;;5.62;46.50;100081.59;7648082;32;39277;-84
2023/01/26 12:17:12;;;;;;;12.40;8.18;;;;;;;5.34;46.90;100074.94;7659333;32;39946;-86
2023/01/26 12:21:36;;;;;;;13.55;8.35;;;;;;;5.55;47.08;100065.47;7659427;32;37907;-84
2023/01/26 12:26:20;;;;;;;17.58;9.05;;;;;;;5.64;46.11;100057.84;7659701;32;36217;-86
2023/01/26 12:30:55;;;;;;;16.35;9.52;;;;;;;5.82;47.19;100048.81;7648351;32;39430;-86
2023/01/26 12:35:11;;;;;;;15.55;9.07;;;;;;;5.84;46.62;100047.50;7646508;32;40859;-84
2023/01/26 12:39:38;;;;;;;16.95;8.88;;;;;;;5.74;47.48;100047.25;7645916;32;37844;-84
2023/01/26 12:44:23;;;;;;;17.70;9.45;;;;;;;5.99;47.17;100038.16;7646691;32;37970;-86
2023/01/26 12:48:51;;;;;;;15.82;8.65;;;;;;;5.85;46.67;100042.94;7659575;32;38920;-84
2023/01/26 12:53:22;;;;;;;15.10;8.95;;;;;;;5.78;45.68;100044.94;7646328;32;39916;-82
2023/01/26 12:57:47;;;;;;;17.10;9.52;;;;;;;5.71;46.93;100036.09;7647032;32;38894;-85
2023/01/26 13:02:10;;;;;;;17.80;9.23;;;;;;;5.92;48.25;100038.22;7659296;32;37239;-84
2023/01/26 13:06:27;;;;;;;;;;;;;;;6.01;46.60;100038.72;7659474;32;40039;-85
2023/01/26 13:10:48;;;;;;;19.20;9.02;;;;;;;5.70;46.40;100043.38;7658927;32;40221;-85
2023/01/26 13:15:13;;;;;;;18.92;9.35;;;;;;;5.80;46.06;100042.81;7658722;32;38592;-83
2023/01/26 13:19:42;;;;;;;16.52;9.38;;;;;;;5.67;46.89;100048.44;7645456;32;37877;-84
2023/01/26 13:23:58;;;;;;;15.75;8.73;;;;;;;5.53;47.38;100037.81;7662136;32;39603;-77
2023/01/26 13:28:29;;;;;;;16.98;9.70;;;;;;;5.68;46.90;100031.97;7671191;32;39903;-78
2023/01/26 13:32:45;;;;;;;14.85;8.35;;;;;;;5.79;46.44;100027.63;7659606;32;38313;-77
2023/01/26 13:37:15;;;;;;;16.52;8.20;;;;;;;5.48;47.22;100031.47;7670767;32;37463;-83
2023/01/26 13:41:31;;;;;;;15.02;8.73;;;;;;;5.88;46.10;100022.69;7647374;32;39190;-82
2023/01/26 13:45:59;;;;;;;13.93;8.35;;;;;;;5.49;47.33;100025.03;7659809;32;40873;-83
2023/01/26 13:50:33;;;;;;;17.98;8.02;;;;;;;5.48;46.19;100020.66;7649205;32;38724;-82
2023/01/26 13:54:50;;;;;;;;;;;;;;;5.19;46.87;100028.56;7655344;32;37183;-84
2023/01/26 13:59:12;;;;;;;15.68;8.30;;;;;;;5.48;46.90;100024.16;7657149;32;40118;-85
2023/01/26 14:03:29;;;;;;;14.68;8.85;;;;;;;5.53;46.51;100021.59;7656623;32;40058;-85
2023/01/26 14:07:46;;;;;;;15.95;8.25;;;;;;;5.58;46.58;100016.31;7657412;32;38043;-85
2023/01/26 14:12:05;;;;;;;13.93;8.50;;;;;;;5.13;47.97;100022.22;7643878;32;37173;-85
2023/01/26 14:16:35;;;;;;;14.13;8.00;;;;;;;5.12;48.16;100027.84;7656789;32;39400;-85
2023/01/26 14:21:13;;;;;;;15.60;8.93;;;;;;;5.30;47.59;100025.09;7642662;32;39913;-85
2023/01/26 14:25:29;;;;;;;16.98;7.78;;;;;;;5.43;47.45;100019.47;7655786;32;37849;-84
2023/01/26 14:29:46;;;;;;;14.63;8.75;;;;;;;5.60;46.83;100024.19;7642703;32;37938;-87
2023/01/26 14:34:09;;;;;;;18.35;8.65;;;;;;;5.52;47.87;100021.81;7655356;32;40625;-86
2023/01/26 14:38:27;;;;;;;14.37;8.23;;;;;;;5.55;48.02;100024.88;7638977;32;39974;-84
2023/01/26 14:42:44;;;;;;;13.57;7.87;;;;;;;5.44;48.37;100026.53;7643824;32;36877;-87
2023/01/26 14:47:06;;;;;;;15.73;8.55;;;;;;;5.40;48.45;100028.06;7656114;32;37357;-84
2023/01/26 14:51:26;;;;;;;14.15;8.43;;;;;;;5.35;48.41;100027.91;7657426;32;39568;-83
2023/01/26 14:55:42;;;;;;;14.23;8.18;;;;;;;5.43;48.87;100024.03;7656900;32;39916;-83
2023/01/26 15:00:01;;;;;;;15.85;8.35;;;;;;;5.49;48.53;100031.25;7642968;32;37674;-83
2023/01/26 15:04:25;;;;;;;16.98;9.05;;;;;;;5.27;49.22;100025.53;7657388;32;36209;-83
2023/01/26 15:08:52;;;;;;;16.05;9.23;;;;;;;5.21;48.04;100021.09;7590546;32;2180922;-85
2023/01/26 15:13:15;;;;;;;15.20;8.50;;;;;;;5.16;48.18;100019.06;7644677;32;40931;-84
2023/01/26 15:17:41;;;;;;;15.93;8.75;;;;;;;5.26;48.14;100016.63;7656711;32;38084;-83
2023/01/26 15:21:59;;;;;;;13.20;7.78;;;;;;;5.22;47.73;100006.50;7656894;32;37097;-84
2023/01/26 15:26:37;;;;;;;19.37;8.48;;;;;;;5.25;46.91;100006.84;7656548;32;39442;-84
2023/01/26 15:30:56;;;;;;;17.73;8.05;;;;;;;5.23;46.07;100014.38;7657030;32;38967;-83
2023/01/26 15:35:27;;;;;;;15.57;8.05;;;;;;;5.18;46.95;100010.72;7643061;32;37782;-84
2023/01/26 15:39:44;;;;;;;14.07;7.82;;;;;;;5.12;47.25;100012.44;7656040;32;37390;-84
2023/01/26 15:44:01;;;;;;;14.65;7.60;;;;;;;5.05;47.41;100012.56;7656534;32;39174;-83
2023/01/26 15:48:17;;;;;;;17.00;7.62;;;;;;;5.36;47.98;100020.63;7641902;32;40131;-83
2023/01/26 15:52:34;;;;;;;18.60;8.35;;;;;;;5.37;47.99;100016.87;7656115;32;38799;-83
2023/01/26 15:56:50;;;;;;;14.82;9.35;;;;;;;5.03;50.06;100016.53;7655859;32;37278;-84
2023/01/26 16:01:08;;;;;;;16.37;8.40;;;;;;;5.08;50.54;100019.38;7655831;32;40167;-83
2023/01/26 16:05:26;;;;;;;14.32;7.90;;;;;;;5.02;49.90;100017.59;7655821;32;40632;-82
2023/01/26 16:09:43;;;;;;;13.18;7.55;;;;;;;4.82;50.79;100018.69;7655893;32;39062;-83
2023/01/26 16:14:01;;;;;;;14.38;7.45;;;;;;;4.76;51.23;100024.16;7659333;32;37186;-83
2023/01/26 16:18:20;;;;;;;16.48;7.95;;;;;;;4.88;51.26;100023.19;7659042;32;39929;-83
2023/01/26 16:22:36;;;;;;;12.32;6.80;;;;;;;4.97;50.81;100031.81;7659658;32;40823;-83
2023/01/26 16:26:53;;;;;;;13.77;7.95;;;;;;;4.92;50.29;100028.16;7659095;32;38636;-84
2023/01/26 16:31:27;;;;;;;11.60;7.55;;;;;;;4.85;50.31;100034.44;7659303;32;37869;-83
2023/01/26 16:35:44;;;;;;;14.75;8.65;;;;;;;5.04;49.47;100023.59;7657870;32;39960;-83
2023/01/26 16:40:00;;;;;;;15.20;8.02;;;;;;;4.61;50.46;100038.09;7658550;32;40946;-84
2023/01/26 16:44:18;;;;;;;13.60;7.22;;;;;;;4.53;51.11;100035.69;7659232;32;37883;-83
2023/01/26 16:48:37;;;;;;;18.58;8.50;;;;;;;4.43;51.60;100036.22;7658501;32;37986;-82
2023/01/26 16:52:54;;;;;;;14.27;8.15;;;;;;;4.45;51.47;100036.81;7658861;32;39226;-81
2023/01/26 16:57:10;;;;;;;13.93;7.72;;;;;;;4.45;51.26;100026.00;7658368;32;40965;-83
2023/01/26 17:01:36;;;;;;;15.15;8.57;;;;;;;4.42;51.45;100030.00;7658607;32;37859;-83
2023/01/26 17:05:54;;;;;;;14.75;8.65;;;;;;;4.33;51.59;100026.78;7645117;32;36826;-83
2023/01/26 17:10:11;;;;;;;14.00;8.27;;;;;;;4.33;51.73;100020.56;7658470;32;39472;-82
2023/01/26 17:14:28;;;;;;;14.55;7.85;;;;;;;4.37;51.24;100018.22;7657050;32;41055;-82
2023/01/26 17:18:45;;;;;;;15.85;8.20;;;;;;;4.46;51.28;100014.97;7658379;32;38012;-82
2023/01/26 17:23:01;;;;;;;16.08;8.35;;;;;;;4.38;51.52;100015.31;7644973;32;37284;-82
2023/01/26 17:27:17;;;;;;;15.90;9.00;;;;;;;4.18;52.25;100017.41;7658449;32;39290;-82
2023/01/26 17:31:36;;;;;;;14.85;8.43;;;;;;;4.31;52.04;100012.69;7658171;32;40099;-84
2023/01/26 17:36:00;;;;;;;17.10;9.25;;;;;;;4.44;51.68;100008.97;7658163;32;38917;-82
2023/01/26 17:40:17;;;;;;;16.02;9.45;;;;;;;4.35;51.66;99999.56;7658155;32;39334;-83
2023/01/26 17:44:33;;;;;;;18.12;9.15;;;;;;;4.33;51.72;100009.75;7658752;32;40073;-82
2023/01/26 17:48:50;;;;;;;18.35;9.35;;;;;;;4.37;51.61;100005.53;7658056;32;40066;-82
2023/01/26 17:53:06;;;;;;;18.30;9.02;;;;;;;4.04;52.19;100009.44;7658121;32;37949;-82
2023/01/26 17:57:23;;;;;;;16.45;9.30;;;;;;;4.25;51.80;100008.16;7658057;32;36822;-82
2023/01/26 18:01:39;;;;;;;15.10;9.18;;;;;;;4.32;51.96;100002.69;7657935;32;39334;-82
2023/01/26 18:05:56;;;;;;;18.08;9.15;;;;;;;4.24;52.24;100005.69;7658149;32;39937;-83
2023/01/26 18:10:13;;;;;;;15.85;9.63;;;;;;;4.30;52.25;100007.50;7644869;32;37704;-82
2023/01/26 18:14:29;;;;;;;17.90;9.13;;;;;;;4.23;52.31;100001.34;7657855;32;37082;-82
2023/01/26 18:18:45;;;;;;;14.82;8.82;;;;;;;4.02;53.66;100006.16;7657948;32;39489;-81
2023/01/26 18:23:02;;;;;;;17.25;9.60;;;;;;;3.68;54.74;100002.94;7657851;32;40799;-82
2023/01/26 18:27:18;;;;;;;15.38;9.38;;;;;;;3.83;54.22;99999.91;7657743;32;38973;-82
2023/01/26 18:31:39;;;;;;;13.68;8.93;;;;;;;3.70;54.96;99994.63;7657806;32;37883;-83
2023/01/26 18:36:03;;;;;;;15.75;9.32;;;;;;;3.70;55.17;100002.72;7656703;32;39976;-82
2023/01/26 18:40:20;;;;;;;17.65;9.40;;;;;;;4.06;53.84;99993.84;7658151;32;40811;-82
2023/01/26 18:44:36;;;;;;;18.05;9.88;;;;;;;3.94;53.59;99995.63;7656556;32;37745;-83
2023/01/26 18:48:54;;;;;;;19.65;9.85;;;;;;;4.31;52.61;99995.63;7657976;32;37848;-83
2023/01/26 18:53:10;;;;;;;18.98;9.48;;;;;;;3.84;53.70;99990.75;7658013;32;39384;-83
2023/01/26 18:57:28;;;;;;;20.88;9.98;;;;;;;4.11;53.33;99991.31;7658016;32;39016;-84
2023/01/26 19:01:44;;;;;;;18.10;10.43;;;;;;;3.97;53.77;99988.94;7657541;32;37796;-83
2023/01/26 19:06:04;;;;;;;18.33;10.00;;;;;;;4.08;53.98;99986.34;7657796;32;37199;-83
2023/01/26 19:10:22;;;;;;;20.50;10.73;;;;;;;4.09;53.94;99981.78;7657667;32;39105;-82
2023/01/26 19:14:39;;;;;;;21.95;10.32;;;;;;;3.99;53.94;99976.09;7656829;32;39854;-81
2023/01/26 19:18:56;;;;;;;18.08;9.77;;;;;;;3.91;54.22;99982.59;7656446;32;37931;-83
2023/01/26 19:23:12;;;;;;;18.98;10.85;;;;;;;3.95;54.11;99983.81;7639519;32;38741;-83
2023/01/26 19:27:30;;;;;;;19.55;10.07;;;;;;;3.76;54.74;99983.78;7654567;32;39575;-83
2023/01/26 19:31:46;;;;;;;19.42;10.23;;;;;;;3.94;54.28;99980.25;7654390;32;38676;-82
2023/01/26 19:36:06;;;;;;;19.80;10.10;;;;;;;3.81;55.15;99976.88;7654563;32;38493;-82
2023/01/26 19:40:23;;;;;;;16.50;9.55;;;;;;;3.98;54.84;99980.63;7654952;32;37965;-83
2023/01/26 19:44:41;;;;;;;17.52;10.18;;;;;;;3.88;55.69;99974.94;7654624;32;39355;-82
2023/01/26 19:48:58;;;;;;;19.25;10.20;;;;;;;3.85;56.15;99967.31;7655954;32;40849;-84
2023/01/26 19:53:14;;;;;;;19.48;11.05;;;;;;;3.74;56.60;99971.53;7662513;32;37564;-82
2023/01/26 19:57:31;;;;;;;20.98;11.52;;;;;;;3.70;56.82;99975.75;7675756;32;37892;-81
2023/01/26 20:01:47;;;;;;;18.95;11.55;;;;;;;3.64;57.11;99971.22;7668675;32;39585;-79
2023/01/26 20:06:04;;;;;;;21.33;11.63;;;;;;;3.63;57.32;99970.41;7684383;32;39459;-82
2023/01/26 20:10:20;;;;;;;23.20;12.05;;;;;;;3.62;57.64;99971.44;7675899;32;38598;-81
2023/01/26 20:14:37;;;;;;;23.87;11.65;;;;;;;3.70;57.62;99968.47;7666193;32;36990;-82
2023/01/26 20:18:54;;;;;;;24.73;12.82;;;;;;;3.78;57.39;99967.38;7661802;32;40185;-82
2023/01/26 20:23:10;;;;;;;21.70;12.25;;;;;;;3.90;57.08;99970.97;7675041;32;39866;-83
2023/01/26 20:27:29;;;;;;;21.85;12.23;;;;;;;3.77;57.48;99971.09;7684633;32;37838;-82
2023/01/26 20:31:46;;;;;;;29.10;14.15;;;;;;;3.81;57.00;99964.25;7662358;32;36499;-82
2023/01/26 20:36:07;;;;;;;23.42;12.93;;;;;;;4.05;56.21;99961.69;7659400;32;40121;-84
2023/01/26 20:40:24;;;;;;;23.00;12.52;;;;;;;3.87;55.38;99968.72;7660131;32;39905;-84
2023/01/26 20:44:41;;;;;;;25.58;13.77;;;;;;;4.03;55.48;99966.50;7652815;32;37540;-83
2023/01/26 20:48:58;;;;;;;27.52;14.90;;;;;;;3.90;55.35;99970.16;7657587;32;38066;-83
2023/01/26 20:53:15;;;;;;;30.48;14.15;;;;;;;4.21;54.40;99963.81;7656886;32;39338;-82